sensor_id;sensor_type;location;lat;lon;timestamp;P1;durP1;ratioP1;P2;durP2;ratioP2
46815;SDS011;32787;53.316;8.670;2023-08-06T00:02:13;7.68;;;3.53;;
46815;SDS011;32787;53.316;8.670;2023-08-06T00:04:38;8.02;;;3.40;;
46815;SDS011;32787;53.316;8.670;2023-08-06T00:07:04;6.72;;;3.25;;
46815;SDS011;32787;53.316;8.670;2023-08-06T00:09:30;7.53;;;3.33;;
46815;SDS011;32787;53.316;8.670;2023-08-06T00:11:55;6.60;;;3.45;;
46815;SDS011;32787;53.316;8.670;2023-08-06T00:14:21;6.22;;;3.30;;
46815;SDS011;32787;53.316;8.670;2023-08-06T00:16:46;5.50;;;3.20;;
46815;SDS011;32787;53.316;8.670;2023-08-06T00:19:12;7.47;;;3.30;;
46815;SDS011;32787;53.316;8.670;2023-08-06T00:21:38;6.35;;;3.38;;
46815;SDS011;32787;53.316;8.670;2023-08-06T00:24:03;5.72;;;3.10;;
46815;SDS011;32787;53.316;8.670;2023-08-06T00:26:29;6.07;;;3.13;;
46815;SDS011;32787;53.316;8.670;2023-08-06T00:28:55;6.47;;;3.47;;
46815;SDS011;32787;53.316;8.670;2023-08-06T00:31:20;6.72;;;3.20;;
46815;SDS011;32787;53.316;8.670;2023-08-06T00:33:46;8.60;;;3.45;;
46815;SDS011;32787;53.316;8.670;2023-08-06T00:36:11;10.50;;;3.47;;
46815;SDS011;32787;53.316;8.670;2023-08-06T00:38:37;7.53;;;3.15;;
46815;SDS011;32787;53.316;8.670;2023-08-06T00:41:03;8.05;;;3.50;;
46815;SDS011;32787;53.316;8.670;2023-08-06T00:43:29;6.68;;;3.75;;
46815;SDS011;32787;53.316;8.670;2023-08-06T00:45:55;9.27;;;3.78;;
46815;SDS011;32787;53.316;8.670;2023-08-06T00:48:21;7.55;;;3.55;;
46815;SDS011;32787;53.316;8.670;2023-08-06T00:50:46;7.32;;;3.67;;
46815;SDS011;32787;53.316;8.670;2023-08-06T00:53:13;7.85;;;3.85;;
46815;SDS011;32787;53.316;8.670;2023-08-06T00:55:39;6.82;;;3.65;;
46815;SDS011;32787;53.316;8.670;2023-08-06T00:58:05;6.47;;;3.03;;
46815;SDS011;32787;53.316;8.670;2023-08-06T01:00:31;6.85;;;3.50;;
46815;SDS011;32787;53.316;8.670;2023-08-06T01:02:56;7.90;;;3.50;;
46815;SDS011;32787;53.316;8.670;2023-08-06T01:05:22;7.03;;;4.18;;
46815;SDS011;32787;53.316;8.670;2023-08-06T01:13:46;6.60;;;3.80;;
46815;SDS011;32787;53.316;8.670;2023-08-06T01:16:18;7.00;;;4.00;;
46815;SDS011;32787;53.316;8.670;2023-08-06T01:18:46;6.72;;;3.72;;
46815;SDS011;32787;53.316;8.670;2023-08-06T01:21:14;7.95;;;4.40;;
46815;SDS011;32787;53.316;8.670;2023-08-06T01:23:41;8.05;;;3.95;;
46815;SDS011;32787;53.316;8.670;2023-08-06T01:31:48;8.70;;;4.75;;
46815;SDS011;32787;53.316;8.670;2023-08-06T01:34:22;10.20;;;4.45;;
46815;SDS011;32787;53.316;8.670;2023-08-06T01:36:52;10.75;;;4.90;;
46815;SDS011;32787;53.316;8.670;2023-08-06T01:39:18;8.23;;;4.30;;
46815;SDS011;32787;53.316;8.670;2023-08-06T01:41:47;7.57;;;4.85;;
46815;SDS011;32787;53.316;8.670;2023-08-06T01:44:14;7.15;;;4.53;;
46815;SDS011;32787;53.316;8.670;2023-08-06T01:46:40;9.15;;;5.22;;
46815;SDS011;32787;53.316;8.670;2023-08-06T01:49:06;8.75;;;4.75;;
46815;SDS011;32787;53.316;8.670;2023-08-06T01:51:32;8.75;;;5.00;;
46815;SDS011;32787;53.316;8.670;2023-08-06T01:53:57;8.88;;;5.60;;
46815;SDS011;32787;53.316;8.670;2023-08-06T01:56:23;8.25;;;5.07;;
46815;SDS011;32787;53.316;8.670;2023-08-06T01:58:49;9.18;;;5.00;;
46815;SDS011;32787;53.316;8.670;2023-08-06T02:01:14;9.68;;;5.53;;
46815;SDS011;32787;53.316;8.670;2023-08-06T02:03:40;8.55;;;5.10;;
46815;SDS011;32787;53.316;8.670;2023-08-06T02:06:05;8.02;;;5.03;;
46815;SDS011;32787;53.316;8.670;2023-08-06T02:08:31;8.75;;;5.82;;
46815;SDS011;32787;53.316;8.670;2023-08-06T02:10:57;9.65;;;5.22;;
46815;SDS011;32787;53.316;8.670;2023-08-06T02:13:23;9.25;;;5.43;;
46815;SDS011;32787;53.316;8.670;2023-08-06T02:15:49;9.23;;;5.35;;
46815;SDS011;32787;53.316;8.670;2023-08-06T02:18:14;7.90;;;4.88;;
46815;SDS011;32787;53.316;8.670;2023-08-06T02:20:41;8.48;;;4.40;;
46815;SDS011;32787;53.316;8.670;2023-08-06T02:23:07;8.93;;;4.38;;
46815;SDS011;32787;53.316;8.670;2023-08-06T02:25:33;7.90;;;4.68;;
46815;SDS011;32787;53.316;8.670;2023-08-06T02:27:58;8.23;;;4.10;;
46815;SDS011;32787;53.316;8.670;2023-08-06T02:30:24;9.63;;;3.55;;
46815;SDS011;32787;53.316;8.670;2023-08-06T02:32:50;9.25;;;4.40;;
46815;SDS011;32787;53.316;8.670;2023-08-06T02:35:15;6.47;;;4.05;;
46815;SDS011;32787;53.316;8.670;2023-08-06T02:37:41;7.45;;;4.00;;
46815;SDS011;32787;53.316;8.670;2023-08-06T02:40:07;7.25;;;4.00;;
46815;SDS011;32787;53.316;8.670;2023-08-06T02:42:33;12.70;;;4.20;;
46815;SDS011;32787;53.316;8.670;2023-08-06T02:44:58;7.93;;;4.07;;
46815;SDS011;32787;53.316;8.670;2023-08-06T02:47:24;7.10;;;3.40;;
46815;SDS011;32787;53.316;8.670;2023-08-06T02:49:49;7.93;;;4.05;;
46815;SDS011;32787;53.316;8.670;2023-08-06T02:52:15;10.57;;;4.90;;
46815;SDS011;32787;53.316;8.670;2023-08-06T02:54:41;8.43;;;3.92;;
46815;SDS011;32787;53.316;8.670;2023-08-06T02:57:07;7.65;;;4.03;;
46815;SDS011;32787;53.316;8.670;2023-08-06T02:59:33;9.73;;;3.90;;
46815;SDS011;32787;53.316;8.670;2023-08-06T03:01:58;7.18;;;3.97;;
46815;SDS011;32787;53.316;8.670;2023-08-06T03:04:24;6.35;;;3.75;;
46815;SDS011;32787;53.316;8.670;2023-08-06T03:06:50;10.05;;;4.20;;
46815;SDS011;32787;53.316;8.670;2023-08-06T03:09:16;9.80;;;3.95;;
46815;SDS011;32787;53.316;8.670;2023-08-06T03:11:42;8.90;;;4.07;;
46815;SDS011;32787;53.316;8.670;2023-08-06T03:14:07;7.85;;;4.30;;
46815;SDS011;32787;53.316;8.670;2023-08-06T03:16:33;7.95;;;4.40;;
46815;SDS011;32787;53.316;8.670;2023-08-06T03:18:59;7.20;;;4.38;;
46815;SDS011;32787;53.316;8.670;2023-08-06T03:21:25;8.57;;;5.00;;
46815;SDS011;32787;53.316;8.670;2023-08-06T03:23:50;8.63;;;4.40;;
46815;SDS011;32787;53.316;8.670;2023-08-06T03:26:16;8.05;;;5.10;;
46815;SDS011;32787;53.316;8.670;2023-08-06T03:28:41;7.88;;;4.72;;
46815;SDS011;32787;53.316;8.670;2023-08-06T03:31:07;9.75;;;4.70;;
46815;SDS011;32787;53.316;8.670;2023-08-06T03:33:33;9.10;;;5.38;;
46815;SDS011;32787;53.316;8.670;2023-08-06T03:35:58;13.15;;;5.60;;
46815;SDS011;32787;53.316;8.670;2023-08-06T03:38:24;9.93;;;5.38;;
46815;SDS011;32787;53.316;8.670;2023-08-06T03:40:50;11.30;;;5.22;;
46815;SDS011;32787;53.316;8.670;2023-08-06T03:43:15;10.98;;;5.53;;
46815;SDS011;32787;53.316;8.670;2023-08-06T03:45:41;9.40;;;4.88;;
46815;SDS011;32787;53.316;8.670;2023-08-06T03:48:07;9.88;;;6.05;;
46815;SDS011;32787;53.316;8.670;2023-08-06T03:50:33;13.00;;;6.70;;
46815;SDS011;32787;53.316;8.670;2023-08-06T03:52:59;9.55;;;5.40;;
46815;SDS011;32787;53.316;8.670;2023-08-06T03:55:25;10.27;;;6.38;;
46815;SDS011;32787;53.316;8.670;2023-08-06T03:57:50;14.40;;;7.47;;
46815;SDS011;32787;53.316;8.670;2023-08-06T04:00:16;10.43;;;6.55;;
46815;SDS011;32787;53.316;8.670;2023-08-06T04:02:42;10.73;;;7.30;;
46815;SDS011;32787;53.316;8.670;2023-08-06T04:05:07;12.27;;;8.23;;
46815;SDS011;32787;53.316;8.670;2023-08-06T04:07:33;15.13;;;8.68;;
46815;SDS011;32787;53.316;8.670;2023-08-06T04:10:00;14.00;;;8.80;;
46815;SDS011;32787;53.316;8.670;2023-08-06T04:12:28;12.95;;;8.77;;
46815;SDS011;32787;53.316;8.670;2023-08-06T04:14:54;15.77;;;9.77;;
46815;SDS011;32787;53.316;8.670;2023-08-06T04:17:20;13.15;;;8.95;;
46815;SDS011;32787;53.316;8.670;2023-08-06T04:19:47;12.95;;;9.00;;
46815;SDS011;32787;53.316;8.670;2023-08-06T04:22:14;12.25;;;8.20;;
46815;SDS011;32787;53.316;8.670;2023-08-06T04:24:41;12.43;;;8.27;;
46815;SDS011;32787;53.316;8.670;2023-08-06T04:27:08;12.50;;;7.75;;
46815;SDS011;32787;53.316;8.670;2023-08-06T04:29:34;13.18;;;8.32;;
46815;SDS011;32787;53.316;8.670;2023-08-06T04:32:00;13.23;;;7.78;;
46815;SDS011;32787;53.316;8.670;2023-08-06T04:34:25;12.07;;;8.30;;
46815;SDS011;32787;53.316;8.670;2023-08-06T04:36:51;14.43;;;7.90;;
46815;SDS011;32787;53.316;8.670;2023-08-06T04:39:16;14.25;;;7.97;;
46815;SDS011;32787;53.316;8.670;2023-08-06T04:41:42;15.75;;;7.32;;
46815;SDS011;32787;53.316;8.670;2023-08-06T04:44:08;13.65;;;7.70;;
46815;SDS011;32787;53.316;8.670;2023-08-06T04:46:33;12.32;;;7.97;;
46815;SDS011;32787;53.316;8.670;2023-08-06T04:48:59;12.38;;;8.63;;
46815;SDS011;32787;53.316;8.670;2023-08-06T04:51:24;14.48;;;8.63;;
46815;SDS011;32787;53.316;8.670;2023-08-06T04:53:50;14.63;;;8.07;;
46815;SDS011;32787;53.316;8.670;2023-08-06T04:56:16;12.25;;;7.82;;
46815;SDS011;32787;53.316;8.670;2023-08-06T04:58:41;13.25;;;8.13;;
46815;SDS011;32787;53.316;8.670;2023-08-06T05:01:07;10.68;;;7.53;;
46815;SDS011;32787;53.316;8.670;2023-08-06T05:03:32;13.27;;;8.10;;
46815;SDS011;32787;53.316;8.670;2023-08-06T05:05:58;15.73;;;9.38;;
46815;SDS011;32787;53.316;8.670;2023-08-06T05:08:24;14.20;;;9.02;;
46815;SDS011;32787;53.316;8.670;2023-08-06T05:10:49;12.77;;;8.65;;
46815;SDS011;32787;53.316;8.670;2023-08-06T05:13:15;13.18;;;8.32;;
46815;SDS011;32787;53.316;8.670;2023-08-06T05:15:41;12.82;;;8.85;;
46815;SDS011;32787;53.316;8.670;2023-08-06T05:18:07;12.23;;;8.32;;
46815;SDS011;32787;53.316;8.670;2023-08-06T05:20:37;12.55;;;8.73;;
46815;SDS011;32787;53.316;8.670;2023-08-06T05:23:06;12.55;;;8.52;;
46815;SDS011;32787;53.316;8.670;2023-08-06T05:25:31;14.30;;;8.88;;
46815;SDS011;32787;53.316;8.670;2023-08-06T05:27:59;14.00;;;7.93;;
46815;SDS011;32787;53.316;8.670;2023-08-06T05:30:26;13.93;;;8.55;;
46815;SDS011;32787;53.316;8.670;2023-08-06T05:32:52;12.85;;;8.95;;
46815;SDS011;32787;53.316;8.670;2023-08-06T05:35:17;13.07;;;8.77;;
46815;SDS011;32787;53.316;8.670;2023-08-06T05:37:43;15.38;;;8.85;;
46815;SDS011;32787;53.316;8.670;2023-08-06T05:40:09;12.60;;;8.15;;
46815;SDS011;32787;53.316;8.670;2023-08-06T05:42:34;12.95;;;9.00;;
46815;SDS011;32787;53.316;8.670;2023-08-06T05:45:00;16.90;;;9.15;;
46815;SDS011;32787;53.316;8.670;2023-08-06T05:47:26;15.07;;;8.52;;
46815;SDS011;32787;53.316;8.670;2023-08-06T05:49:51;13.38;;;8.30;;
46815;SDS011;32787;53.316;8.670;2023-08-06T05:52:17;14.73;;;8.55;;
46815;SDS011;32787;53.316;8.670;2023-08-06T05:54:42;14.57;;;9.13;;
46815;SDS011;32787;53.316;8.670;2023-08-06T05:57:08;13.25;;;8.75;;
46815;SDS011;32787;53.316;8.670;2023-08-06T05:59:34;15.10;;;8.85;;
46815;SDS011;32787;53.316;8.670;2023-08-06T06:01:59;13.68;;;8.88;;
46815;SDS011;32787;53.316;8.670;2023-08-06T06:04:25;13.18;;;8.32;;
46815;SDS011;32787;53.316;8.670;2023-08-06T06:06:50;13.25;;;8.88;;
46815;SDS011;32787;53.316;8.670;2023-08-06T06:09:16;15.90;;;8.90;;
46815;SDS011;32787;53.316;8.670;2023-08-06T06:11:41;13.80;;;8.23;;
46815;SDS011;32787;53.316;8.670;2023-08-06T06:14:07;14.13;;;9.18;;
46815;SDS011;32787;53.316;8.670;2023-08-06T06:16:33;13.48;;;8.85;;
46815;SDS011;32787;53.316;8.670;2023-08-06T06:18:59;13.85;;;9.00;;
46815;SDS011;32787;53.316;8.670;2023-08-06T06:21:25;13.40;;;9.68;;
46815;SDS011;32787;53.316;8.670;2023-08-06T06:23:50;13.82;;;8.65;;
46815;SDS011;32787;53.316;8.670;2023-08-06T06:26:17;13.98;;;7.72;;
46815;SDS011;32787;53.316;8.670;2023-08-06T06:28:43;10.60;;;7.30;;
46815;SDS011;32787;53.316;8.670;2023-08-06T06:31:08;11.40;;;8.02;;
46815;SDS011;32787;53.316;8.670;2023-08-06T06:33:34;12.15;;;8.30;;
46815;SDS011;32787;53.316;8.670;2023-08-06T06:36:00;13.55;;;8.80;;
46815;SDS011;32787;53.316;8.670;2023-08-06T06:38:28;12.70;;;9.32;;
46815;SDS011;32787;53.316;8.670;2023-08-06T06:40:57;14.57;;;10.10;;
46815;SDS011;32787;53.316;8.670;2023-08-06T06:43:23;13.48;;;9.15;;
46815;SDS011;32787;53.316;8.670;2023-08-06T06:45:56;16.63;;;10.90;;
46815;SDS011;32787;53.316;8.670;2023-08-06T06:48:26;14.60;;;9.52;;
46815;SDS011;32787;53.316;8.670;2023-08-06T06:50:52;13.27;;;8.65;;
46815;SDS011;32787;53.316;8.670;2023-08-06T06:53:18;13.05;;;8.60;;
46815;SDS011;32787;53.316;8.670;2023-08-06T06:55:44;11.98;;;8.30;;
46815;SDS011;32787;53.316;8.670;2023-08-06T06:58:09;9.90;;;6.85;;
46815;SDS011;32787;53.316;8.670;2023-08-06T07:00:35;10.90;;;7.85;;
46815;SDS011;32787;53.316;8.670;2023-08-06T07:03:02;12.63;;;8.40;;
46815;SDS011;32787;53.316;8.670;2023-08-06T07:05:28;12.75;;;8.38;;
46815;SDS011;32787;53.316;8.670;2023-08-06T07:07:54;12.85;;;8.43;;
46815;SDS011;32787;53.316;8.670;2023-08-06T07:10:19;11.98;;;8.25;;
46815;SDS011;32787;53.316;8.670;2023-08-06T07:12:45;11.30;;;8.35;;
46815;SDS011;32787;53.316;8.670;2023-08-06T07:15:10;10.98;;;7.20;;
46815;SDS011;32787;53.316;8.670;2023-08-06T07:17:36;13.15;;;8.57;;
46815;SDS011;32787;53.316;8.670;2023-08-06T07:20:02;12.55;;;8.68;;
46815;SDS011;32787;53.316;8.670;2023-08-06T07:22:28;12.02;;;8.40;;
46815;SDS011;32787;53.316;8.670;2023-08-06T07:24:54;14.65;;;9.23;;
46815;SDS011;32787;53.316;8.670;2023-08-06T07:27:19;11.00;;;7.10;;
46815;SDS011;32787;53.316;8.670;2023-08-06T07:29:45;13.45;;;9.32;;
46815;SDS011;32787;53.316;8.670;2023-08-06T07:32:10;13.75;;;8.85;;
46815;SDS011;32787;53.316;8.670;2023-08-06T07:34:36;12.88;;;8.73;;
46815;SDS011;32787;53.316;8.670;2023-08-06T07:37:01;11.48;;;7.68;;
46815;SDS011;32787;53.316;8.670;2023-08-06T07:39:27;12.13;;;7.57;;
46815;SDS011;32787;53.316;8.670;2023-08-06T07:41:53;11.90;;;7.60;;
46815;SDS011;32787;53.316;8.670;2023-08-06T07:44:19;11.65;;;7.88;;
46815;SDS011;32787;53.316;8.670;2023-08-06T07:46:45;11.95;;;8.05;;
46815;SDS011;32787;53.316;8.670;2023-08-06T07:49:10;10.75;;;7.13;;
46815;SDS011;32787;53.316;8.670;2023-08-06T07:51:36;10.45;;;7.25;;
46815;SDS011;32787;53.316;8.670;2023-08-06T07:54:02;10.18;;;6.88;;
46815;SDS011;32787;53.316;8.670;2023-08-06T07:56:28;12.10;;;6.90;;
46815;SDS011;32787;53.316;8.670;2023-08-06T07:58:54;10.63;;;6.68;;
46815;SDS011;32787;53.316;8.670;2023-08-06T08:01:19;10.90;;;5.75;;
46815;SDS011;32787;53.316;8.670;2023-08-06T08:03:45;10.25;;;6.60;;
46815;SDS011;32787;53.316;8.670;2023-08-06T08:06:10;10.20;;;5.95;;
46815;SDS011;32787;53.316;8.670;2023-08-06T08:08:36;8.73;;;5.88;;
46815;SDS011;32787;53.316;8.670;2023-08-06T08:11:03;8.27;;;5.32;;
46815;SDS011;32787;53.316;8.670;2023-08-06T08:13:29;8.77;;;5.07;;
46815;SDS011;32787;53.316;8.670;2023-08-06T08:15:58;7.75;;;4.70;;
46815;SDS011;32787;53.316;8.670;2023-08-06T08:18:24;10.05;;;6.30;;
46815;SDS011;32787;53.316;8.670;2023-08-06T08:20:50;8.10;;;5.03;;
46815;SDS011;32787;53.316;8.670;2023-08-06T08:23:16;8.35;;;5.25;;
46815;SDS011;32787;53.316;8.670;2023-08-06T08:25:41;7.05;;;4.78;;
46815;SDS011;32787;53.316;8.670;2023-08-06T08:28:07;7.38;;;4.35;;
46815;SDS011;32787;53.316;8.670;2023-08-06T08:30:33;7.10;;;4.57;;
46815;SDS011;32787;53.316;8.670;2023-08-06T08:32:58;8.30;;;5.13;;
46815;SDS011;32787;53.316;8.670;2023-08-06T08:35:24;7.20;;;4.68;;
46815;SDS011;32787;53.316;8.670;2023-08-06T08:37:50;8.25;;;5.65;;
46815;SDS011;32787;53.316;8.670;2023-08-06T08:40:16;7.75;;;5.30;;
46815;SDS011;32787;53.316;8.670;2023-08-06T08:42:42;8.57;;;5.32;;
46815;SDS011;32787;53.316;8.670;2023-08-06T08:45:11;7.25;;;4.70;;
46815;SDS011;32787;53.316;8.670;2023-08-06T08:47:43;9.45;;;4.80;;
46815;SDS011;32787;53.316;8.670;2023-08-06T08:50:09;8.43;;;5.32;;
46815;SDS011;32787;53.316;8.670;2023-08-06T08:52:39;7.78;;;4.03;;
46815;SDS011;32787;53.316;8.670;2023-08-06T08:55:06;7.28;;;4.40;;
46815;SDS011;32787;53.316;8.670;2023-08-06T08:57:33;7.57;;;4.00;;
46815;SDS011;32787;53.316;8.670;2023-08-06T08:59:59;7.07;;;4.05;;
46815;SDS011;32787;53.316;8.670;2023-08-06T09:02:25;6.03;;;3.75;;
46815;SDS011;32787;53.316;8.670;2023-08-06T09:07:22;5.60;;;3.60;;
46815;SDS011;32787;53.316;8.670;2023-08-06T09:09:49;5.43;;;3.22;;
46815;SDS011;32787;53.316;8.670;2023-08-06T09:12:17;6.72;;;3.35;;
46815;SDS011;32787;53.316;8.670;2023-08-06T09:14:43;7.55;;;3.30;;
46815;SDS011;32787;53.316;8.670;2023-08-06T09:17:08;7.05;;;4.00;;
46815;SDS011;32787;53.316;8.670;2023-08-06T09:19:36;6.30;;;3.95;;
46815;SDS011;32787;53.316;8.670;2023-08-06T09:22:02;6.85;;;4.15;;
46815;SDS011;32787;53.316;8.670;2023-08-06T09:24:27;6.32;;;4.22;;
46815;SDS011;32787;53.316;8.670;2023-08-06T09:26:53;6.55;;;3.63;;
46815;SDS011;32787;53.316;8.670;2023-08-06T09:29:19;7.32;;;4.38;;
46815;SDS011;32787;53.316;8.670;2023-08-06T09:31:48;6.10;;;3.65;;
46815;SDS011;32787;53.316;8.670;2023-08-06T09:36:43;6.05;;;3.42;;
46815;SDS011;32787;53.316;8.670;2023-08-06T09:39:12;5.35;;;3.17;;
46815;SDS011;32787;53.316;8.670;2023-08-06T09:41:39;6.18;;;3.60;;
46815;SDS011;32787;53.316;8.670;2023-08-06T09:44:05;5.55;;;2.63;;
46815;SDS011;32787;53.316;8.670;2023-08-06T09:46:40;7.05;;;3.47;;
46815;SDS011;32787;53.316;8.670;2023-08-06T09:49:05;5.65;;;2.92;;
46815;SDS011;32787;53.316;8.670;2023-08-06T09:51:33;4.72;;;2.70;;
46815;SDS011;32787;53.316;8.670;2023-08-06T09:53:59;5.32;;;2.92;;
46815;SDS011;32787;53.316;8.670;2023-08-06T09:56:26;3.90;;;2.20;;
46815;SDS011;32787;53.316;8.670;2023-08-06T09:58:53;5.72;;;2.42;;
46815;SDS011;32787;53.316;8.670;2023-08-06T10:01:20;4.63;;;2.30;;
46815;SDS011;32787;53.316;8.670;2023-08-06T10:03:47;4.40;;;2.33;;
46815;SDS011;32787;53.316;8.670;2023-08-06T10:06:15;4.78;;;2.35;;
46815;SDS011;32787;53.316;8.670;2023-08-06T10:08:41;4.22;;;2.25;;
46815;SDS011;32787;53.316;8.670;2023-08-06T10:11:07;5.18;;;2.40;;
46815;SDS011;32787;53.316;8.670;2023-08-06T10:13:33;4.32;;;1.98;;
46815;SDS011;32787;53.316;8.670;2023-08-06T10:16:00;4.53;;;2.30;;
46815;SDS011;32787;53.316;8.670;2023-08-06T10:18:26;4.22;;;2.15;;
46815;SDS011;32787;53.316;8.670;2023-08-06T10:20:53;5.28;;;2.20;;
46815;SDS011;32787;53.316;8.670;2023-08-06T10:23:19;4.28;;;2.10;;
46815;SDS011;32787;53.316;8.670;2023-08-06T10:25:46;5.38;;;1.80;;
46815;SDS011;32787;53.316;8.670;2023-08-06T10:28:20;4.25;;;1.83;;
46815;SDS011;32787;53.316;8.670;2023-08-06T10:30:46;6.50;;;2.10;;
46815;SDS011;32787;53.316;8.670;2023-08-06T10:33:12;4.53;;;1.58;;
46815;SDS011;32787;53.316;8.670;2023-08-06T10:35:42;5.75;;;2.00;;
46815;SDS011;32787;53.316;8.670;2023-08-06T10:40:41;3.92;;;1.92;;
46815;SDS011;32787;53.316;8.670;2023-08-06T10:43:24;5.32;;;2.17;;
46815;SDS011;32787;53.316;8.670;2023-08-06T10:46:00;4.70;;;1.77;;
46815;SDS011;32787;53.316;8.670;2023-08-06T10:51:10;5.40;;;2.20;;
46815;SDS011;32787;53.316;8.670;2023-08-06T10:53:37;4.80;;;2.28;;
46815;SDS011;32787;53.316;8.670;2023-08-06T10:58:42;5.38;;;1.92;;
46815;SDS011;32787;53.316;8.670;2023-08-06T11:01:08;4.95;;;2.20;;
46815;SDS011;32787;53.316;8.670;2023-08-06T11:03:34;5.43;;;2.67;;
46815;SDS011;32787;53.316;8.670;2023-08-06T11:06:00;6.93;;;2.90;;
46815;SDS011;32787;53.316;8.670;2023-08-06T11:08:26;4.95;;;2.92;;
46815;SDS011;32787;53.316;8.670;2023-08-06T11:10:52;5.30;;;2.97;;
46815;SDS011;32787;53.316;8.670;2023-08-06T11:13:18;7.43;;;3.78;;
46815;SDS011;32787;53.316;8.670;2023-08-06T11:15:45;5.50;;;3.60;;
46815;SDS011;32787;53.316;8.670;2023-08-06T11:18:11;7.28;;;3.22;;
46815;SDS011;32787;53.316;8.670;2023-08-06T11:20:36;7.70;;;3.85;;
46815;SDS011;32787;53.316;8.670;2023-08-06T11:23:03;5.95;;;3.50;;
46815;SDS011;32787;53.316;8.670;2023-08-06T11:25:29;6.20;;;3.10;;
46815;SDS011;32787;53.316;8.670;2023-08-06T11:27:55;5.60;;;3.00;;
46815;SDS011;32787;53.316;8.670;2023-08-06T11:30:20;5.90;;;3.53;;
46815;SDS011;32787;53.316;8.670;2023-08-06T11:32:47;5.85;;;2.95;;
46815;SDS011;32787;53.316;8.670;2023-08-06T11:35:13;6.70;;;3.67;;
46815;SDS011;32787;53.316;8.670;2023-08-06T11:37:43;6.47;;;3.30;;
46815;SDS011;32787;53.316;8.670;2023-08-06T11:40:10;6.95;;;3.38;;
46815;SDS011;32787;53.316;8.670;2023-08-06T11:42:38;6.95;;;3.75;;
46815;SDS011;32787;53.316;8.670;2023-08-06T11:45:04;5.53;;;3.00;;
46815;SDS011;32787;53.316;8.670;2023-08-06T11:47:30;5.18;;;2.95;;
46815;SDS011;32787;53.316;8.670;2023-08-06T11:49:56;5.07;;;3.10;;
46815;SDS011;32787;53.316;8.670;2023-08-06T11:52:22;6.00;;;2.75;;
46815;SDS011;32787;53.316;8.670;2023-08-06T11:55:05;5.32;;;2.70;;
46815;SDS011;32787;53.316;8.670;2023-08-06T11:57:35;5.10;;;2.58;;
46815;SDS011;32787;53.316;8.670;2023-08-06T12:00:05;5.00;;;2.60;;
46815;SDS011;32787;53.316;8.670;2023-08-06T12:02:35;5.95;;;2.40;;
46815;SDS011;32787;53.316;8.670;2023-08-06T12:05:10;5.13;;;2.63;;
46815;SDS011;32787;53.316;8.670;2023-08-06T12:07:38;3.97;;;1.98;;
46815;SDS011;32787;53.316;8.670;2023-08-06T12:10:05;6.75;;;2.40;;
46815;SDS011;32787;53.316;8.670;2023-08-06T12:12:31;5.57;;;2.60;;
46815;SDS011;32787;53.316;8.670;2023-08-06T12:14:57;4.97;;;2.55;;
46815;SDS011;32787;53.316;8.670;2023-08-06T12:17:23;5.40;;;2.53;;
46815;SDS011;32787;53.316;8.670;2023-08-06T12:19:50;5.50;;;2.15;;
46815;SDS011;32787;53.316;8.670;2023-08-06T12:22:16;5.22;;;2.47;;
46815;SDS011;32787;53.316;8.670;2023-08-06T12:24:42;4.38;;;2.25;;
46815;SDS011;32787;53.316;8.670;2023-08-06T12:27:08;4.78;;;2.70;;
46815;SDS011;32787;53.316;8.670;2023-08-06T12:29:34;6.30;;;2.40;;
46815;SDS011;32787;53.316;8.670;2023-08-06T12:32:00;6.65;;;2.97;;
46815;SDS011;32787;53.316;8.670;2023-08-06T12:34:25;4.60;;;2.35;;
46815;SDS011;32787;53.316;8.670;2023-08-06T12:36:51;6.90;;;2.65;;
46815;SDS011;32787;53.316;8.670;2023-08-06T12:39:16;5.57;;;2.50;;
46815;SDS011;32787;53.316;8.670;2023-08-06T12:41:42;5.80;;;2.38;;
46815;SDS011;32787;53.316;8.670;2023-08-06T12:44:08;4.90;;;2.25;;
46815;SDS011;32787;53.316;8.670;2023-08-06T12:46:34;5.00;;;2.50;;
46815;SDS011;32787;53.316;8.670;2023-08-06T12:49:00;5.43;;;2.72;;
46815;SDS011;32787;53.316;8.670;2023-08-06T12:51:25;5.72;;;2.85;;
46815;SDS011;32787;53.316;8.670;2023-08-06T12:53:51;4.97;;;2.75;;
46815;SDS011;32787;53.316;8.670;2023-08-06T12:56:16;6.10;;;2.70;;
46815;SDS011;32787;53.316;8.670;2023-08-06T12:58:42;4.57;;;2.20;;
46815;SDS011;32787;53.316;8.670;2023-08-06T13:01:08;4.35;;;2.35;;
46815;SDS011;32787;53.316;8.670;2023-08-06T13:03:33;5.88;;;2.40;;
46815;SDS011;32787;53.316;8.670;2023-08-06T13:05:59;5.43;;;2.42;;
46815;SDS011;32787;53.316;8.670;2023-08-06T13:08:25;4.53;;;2.50;;
46815;SDS011;32787;53.316;8.670;2023-08-06T13:10:50;6.65;;;2.78;;
46815;SDS011;32787;53.316;8.670;2023-08-06T13:13:16;4.35;;;2.33;;
46815;SDS011;32787;53.316;8.670;2023-08-06T13:15:41;9.10;;;2.78;;
46815;SDS011;32787;53.316;8.670;2023-08-06T13:18:07;4.72;;;2.47;;
46815;SDS011;32787;53.316;8.670;2023-08-06T13:20:33;5.88;;;2.53;;
46815;SDS011;32787;53.316;8.670;2023-08-06T13:22:58;4.68;;;2.40;;
46815;SDS011;32787;53.316;8.670;2023-08-06T13:25:26;5.63;;;2.80;;
46815;SDS011;32787;53.316;8.670;2023-08-06T13:27:53;5.32;;;2.58;;
46815;SDS011;32787;53.316;8.670;2023-08-06T13:30:19;4.47;;;2.25;;
46815;SDS011;32787;53.316;8.670;2023-08-06T13:32:45;6.05;;;2.65;;
46815;SDS011;32787;53.316;8.670;2023-08-06T13:35:11;5.97;;;2.60;;
46815;SDS011;32787;53.316;8.670;2023-08-06T13:37:36;7.53;;;2.88;;
46815;SDS011;32787;53.316;8.670;2023-08-06T13:40:02;6.70;;;2.70;;
46815;SDS011;32787;53.316;8.670;2023-08-06T13:42:28;5.75;;;2.60;;
46815;SDS011;32787;53.316;8.670;2023-08-06T13:44:54;6.93;;;2.92;;
46815;SDS011;32787;53.316;8.670;2023-08-06T13:47:27;5.38;;;2.90;;
46815;SDS011;32787;53.316;8.670;2023-08-06T13:49:53;6.93;;;3.80;;
46815;SDS011;32787;53.316;8.670;2023-08-06T13:52:18;7.35;;;3.30;;
46815;SDS011;32787;53.316;8.670;2023-08-06T13:54:44;6.93;;;3.10;;
46815;SDS011;32787;53.316;8.670;2023-08-06T13:57:10;7.88;;;3.30;;
46815;SDS011;32787;53.316;8.670;2023-08-06T13:59:35;5.78;;;3.03;;
46815;SDS011;32787;53.316;8.670;2023-08-06T14:02:01;5.93;;;3.28;;
46815;SDS011;32787;53.316;8.670;2023-08-06T14:04:27;6.78;;;3.20;;
46815;SDS011;32787;53.316;8.670;2023-08-06T14:06:52;6.20;;;2.85;;
46815;SDS011;32787;53.316;8.670;2023-08-06T14:09:18;5.13;;;2.67;;
46815;SDS011;32787;53.316;8.670;2023-08-06T14:11:44;7.20;;;3.05;;
46815;SDS011;32787;53.316;8.670;2023-08-06T14:14:10;6.72;;;3.25;;
46815;SDS011;32787;53.316;8.670;2023-08-06T14:16:36;7.50;;;3.10;;
46815;SDS011;32787;53.316;8.670;2023-08-06T14:19:01;5.15;;;2.70;;
46815;SDS011;32787;53.316;8.670;2023-08-06T14:21:27;7.15;;;3.28;;
46815;SDS011;32787;53.316;8.670;2023-08-06T14:23:53;5.40;;;3.05;;
46815;SDS011;32787;53.316;8.670;2023-08-06T14:26:19;6.90;;;3.17;;
46815;SDS011;32787;53.316;8.670;2023-08-06T14:28:44;6.97;;;3.05;;
46815;SDS011;32787;53.316;8.670;2023-08-06T14:31:11;8.20;;;3.10;;
46815;SDS011;32787;53.316;8.670;2023-08-06T14:33:36;6.50;;;2.85;;
46815;SDS011;32787;53.316;8.670;2023-08-06T14:36:02;6.40;;;3.22;;
46815;SDS011;32787;53.316;8.670;2023-08-06T14:38:28;7.65;;;3.03;;
46815;SDS011;32787;53.316;8.670;2023-08-06T14:40:53;8.30;;;3.20;;
46815;SDS011;32787;53.316;8.670;2023-08-06T14:43:19;6.13;;;2.92;;
46815;SDS011;32787;53.316;8.670;2023-08-06T14:45:45;5.60;;;2.92;;
46815;SDS011;32787;53.316;8.670;2023-08-06T14:48:10;6.53;;;2.60;;
46815;SDS011;32787;53.316;8.670;2023-08-06T14:50:36;5.20;;;2.85;;
46815;SDS011;32787;53.316;8.670;2023-08-06T14:53:04;7.68;;;3.00;;
46815;SDS011;32787;53.316;8.670;2023-08-06T14:55:30;7.03;;;2.88;;
46815;SDS011;32787;53.316;8.670;2023-08-06T14:57:56;7.13;;;2.90;;
46815;SDS011;32787;53.316;8.670;2023-08-06T15:00:22;7.93;;;3.20;;
46815;SDS011;32787;53.316;8.670;2023-08-06T15:02:48;6.95;;;2.80;;